sensor_id;sensor_type;location;lat;lon;timestamp;temperature;humidity
796;DHT22;381;48.770;9.188;2023-05-10T00:03:12;15.90;99.90
796;DHT22;381;48.770;9.188;2023-05-10T00:08:15;15.80;99.90
796;DHT22;381;48.770;9.188;2023-05-10T00:13:17;15.80;99.90
796;DHT22;381;48.770;9.188;2023-05-10T00:18:20;15.80;99.90
796;DHT22;381;48.770;9.188;2023-05-10T00:23:22;15.80;99.90
796;DHT22;381;48.770;9.188;2023-05-10T00:28:24;15.80;99.90
796;DHT22;381;48.770;9.188;2023-05-10T00:33:28;15.70;99.90
796;DHT22;381;48.770;9.188;2023-05-10T00:38:30;15.60;99.90
796;DHT22;381;48.770;9.188;2023-05-10T00:43:32;15.60;99.90
796;DHT22;381;48.770;9.188;2023-05-10T00:48:35;15.60;99.90
796;DHT22;381;48.770;9.188;2023-05-10T00:53:38;15.50;99.90
796;DHT22;381;48.770;9.188;2023-05-10T00:58:40;15.50;99.90
796;DHT22;381;48.770;9.188;2023-05-10T01:03:44;15.50;99.90
796;DHT22;381;48.770;9.188;2023-05-10T01:08:46;15.40;99.90
796;DHT22;381;48.770;9.188;2023-05-10T01:13:55;15.40;99.90
796;DHT22;381;48.770;9.188;2023-05-10T01:18:59;15.30;99.90
796;DHT22;381;48.770;9.188;2023-05-10T01:24:26;15.30;99.90
796;DHT22;381;48.770;9.188;2023-05-10T01:35:17;15.30;99.90
796;DHT22;381;48.770;9.188;2023-05-10T01:40:26;15.40;99.90
796;DHT22;381;48.770;9.188;2023-05-10T01:45:36;15.40;99.90
796;DHT22;381;48.770;9.188;2023-05-10T01:50:43;15.40;99.90
796;DHT22;381;48.770;9.188;2023-05-10T01:55:48;15.40;99.90
796;DHT22;381;48.770;9.188;2023-05-10T02:00:52;15.40;99.90
796;DHT22;381;48.770;9.188;2023-05-10T02:05:57;15.40;99.90
796;DHT22;381;48.770;9.188;2023-05-10T02:11:01;15.40;99.90
796;DHT22;381;48.770;9.188;2023-05-10T02:16:05;15.40;99.90
796;DHT22;381;48.770;9.188;2023-05-10T02:21:10;15.40;99.90
796;DHT22;381;48.770;9.188;2023-05-10T02:26:14;15.40;99.90
796;DHT22;381;48.770;9.188;2023-05-10T02:31:17;15.40;99.90
796;DHT22;381;48.770;9.188;2023-05-10T02:36:21;15.30;99.90
796;DHT22;381;48.770;9.188;2023-05-10T02:41:25;15.30;99.90
796;DHT22;381;48.770;9.188;2023-05-10T02:46:29;15.30;99.90
796;DHT22;381;48.770;9.188;2023-05-10T02:51:35;15.30;99.90
796;DHT22;381;48.770;9.188;2023-05-10T02:56:43;15.40;99.90
796;DHT22;381;48.770;9.188;2023-05-10T03:01:48;15.30;99.90
796;DHT22;381;48.770;9.188;2023-05-10T03:06:52;15.30;99.90
796;DHT22;381;48.770;9.188;2023-05-10T03:12:02;15.30;99.90
796;DHT22;381;48.770;9.188;2023-05-10T03:17:11;15.30;99.90
796;DHT22;381;48.770;9.188;2023-05-10T03:22:23;15.30;99.90
796;DHT22;381;48.770;9.188;2023-05-10T03:27:27;15.20;99.90
796;DHT22;381;48.770;9.188;2023-05-10T03:32:30;15.30;99.90
796;DHT22;381;48.770;9.188;2023-05-10T03:37:37;15.40;99.90
796;DHT22;381;48.770;9.188;2023-05-10T03:42:40;15.40;99.90
796;DHT22;381;48.770;9.188;2023-05-10T03:47:42;15.40;99.90
796;DHT22;381;48.770;9.188;2023-05-10T03:52:46;15.40;99.90
796;DHT22;381;48.770;9.188;2023-05-10T03:57:48;15.40;99.90
796;DHT22;381;48.770;9.188;2023-05-10T04:02:51;15.40;99.90
796;DHT22;381;48.770;9.188;2023-05-10T04:07:56;15.40;99.90
796;DHT22;381;48.770;9.188;2023-05-10T04:12:58;15.40;99.90
796;DHT22;381;48.770;9.188;2023-05-10T04:18:00;15.40;99.90
796;DHT22;381;48.770;9.188;2023-05-10T04:23:03;15.40;99.90
796;DHT22;381;48.770;9.188;2023-05-10T04:28:05;15.30;99.90
796;DHT22;381;48.770;9.188;2023-05-10T04:33:07;15.30;99.90
796;DHT22;381;48.770;9.188;2023-05-10T04:38:11;15.40;99.90
796;DHT22;381;48.770;9.188;2023-05-10T04:43:13;15.40;99.90
796;DHT22;381;48.770;9.188;2023-05-10T04:48:15;15.40;99.90
796;DHT22;381;48.770;9.188;2023-05-10T04:53:18;15.40;99.90
796;DHT22;381;48.770;9.188;2023-05-10T04:58:20;15.40;99.90
796;DHT22;381;48.770;9.188;2023-05-10T05:03:23;15.40;99.90
796;DHT22;381;48.770;9.188;2023-05-10T05:08:26;15.50;99.90
796;DHT22;381;48.770;9.188;2023-05-10T05:13:28;15.50;99.90
796;DHT22;381;48.770;9.188;2023-05-10T05:18:30;15.50;99.90
796;DHT22;381;48.770;9.188;2023-05-10T05:23:34;15.60;99.90
796;DHT22;381;48.770;9.188;2023-05-10T05:28:36;15.70;99.90
796;DHT22;381;48.770;9.188;2023-05-10T05:33:38;15.80;99.90
796;DHT22;381;48.770;9.188;2023-05-10T05:38:41;15.90;99.90
796;DHT22;381;48.770;9.188;2023-05-10T05:43:44;15.90;99.90
796;DHT22;381;48.770;9.188;2023-05-10T05:48:46;16.00;99.90
796;DHT22;381;48.770;9.188;2023-05-10T05:53:49;16.10;99.90
796;DHT22;381;48.770;9.188;2023-05-10T05:58:51;16.10;99.90
796;DHT22;381;48.770;9.188;2023-05-10T06:03:53;16.20;99.90
796;DHT22;381;48.770;9.188;2023-05-10T06:08:57;16.20;99.90
796;DHT22;381;48.770;9.188;2023-05-10T06:13:59;16.30;99.90
796;DHT22;381;48.770;9.188;2023-05-10T06:19:01;16.30;99.90
796;DHT22;381;48.770;9.188;2023-05-10T06:24:05;16.40;99.90
796;DHT22;381;48.770;9.188;2023-05-10T06:29:08;16.50;99.90
796;DHT22;381;48.770;9.188;2023-05-10T06:34:10;16.50;99.90
796;DHT22;381;48.770;9.188;2023-05-10T06:39:13;16.50;99.90
796;DHT22;381;48.770;9.188;2023-05-10T06:44:16;16.50;99.90
796;DHT22;381;48.770;9.188;2023-05-10T06:49:18;16.50;99.90
796;DHT22;381;48.770;9.188;2023-05-10T06:54:21;16.40;99.90
796;DHT22;381;48.770;9.188;2023-05-10T06:59:23;16.50;99.90
796;DHT22;381;48.770;9.188;2023-05-10T07:04:26;16.40;99.90
796;DHT22;381;48.770;9.188;2023-05-10T07:09:29;16.40;99.90
796;DHT22;381;48.770;9.188;2023-05-10T07:14:31;16.40;99.90
796;DHT22;381;48.770;9.188;2023-05-10T07:19:33;16.50;99.90
796;DHT22;381;48.770;9.188;2023-05-10T07:24:37;16.60;99.90
796;DHT22;381;48.770;9.188;2023-05-10T07:29:40;16.90;99.90
796;DHT22;381;48.770;9.188;2023-05-10T07:34:42;17.10;99.90
796;DHT22;381;48.770;9.188;2023-05-10T07:39:46;17.30;99.90
796;DHT22;381;48.770;9.188;2023-05-10T07:44:48;17.40;99.90
796;DHT22;381;48.770;9.188;2023-05-10T07:49:50;17.50;99.90
796;DHT22;381;48.770;9.188;2023-05-10T07:54:53;17.60;99.90
796;DHT22;381;48.770;9.188;2023-05-10T07:59:57;17.70;99.90
796;DHT22;381;48.770;9.188;2023-05-10T08:04:59;17.70;99.90
796;DHT22;381;48.770;9.188;2023-05-10T08:10:03;17.80;99.90
796;DHT22;381;48.770;9.188;2023-05-10T08:15:06;17.80;99.90
796;DHT22;381;48.770;9.188;2023-05-10T08:20:09;17.80;99.90
796;DHT22;381;48.770;9.188;2023-05-10T08:25:14;17.80;99.90
796;DHT22;381;48.770;9.188;2023-05-10T08:30:16;17.80;99.90
796;DHT22;381;48.770;9.188;2023-05-10T08:35:18;17.80;99.90
796;DHT22;381;48.770;9.188;2023-05-10T08:40:24;17.70;99.90
796;DHT22;381;48.770;9.188;2023-05-10T08:45:32;17.70;99.90
796;DHT22;381;48.770;9.188;2023-05-10T08:50:35;17.70;99.90
796;DHT22;381;48.770;9.188;2023-05-10T08:55:40;17.60;99.90
796;DHT22;381;48.770;9.188;2023-05-10T09:00:43;17.60;99.90
796;DHT22;381;48.770;9.188;2023-05-10T09:05:46;17.70;99.90
796;DHT22;381;48.770;9.188;2023-05-10T09:10:50;17.90;99.90
796;DHT22;381;48.770;9.188;2023-05-10T09:15:53;18.10;99.90
796;DHT22;381;48.770;9.188;2023-05-10T09:20:55;18.30;99.90
796;DHT22;381;48.770;9.188;2023-05-10T09:26:05;18.40;99.90
796;DHT22;381;48.770;9.188;2023-05-10T09:31:07;18.30;99.90
796;DHT22;381;48.770;9.188;2023-05-10T09:36:10;18.20;99.90
796;DHT22;381;48.770;9.188;2023-05-10T09:41:17;18.10;99.90
796;DHT22;381;48.770;9.188;2023-05-10T09:46:19;18.20;99.90
796;DHT22;381;48.770;9.188;2023-05-10T09:51:22;18.40;99.90
796;DHT22;381;48.770;9.188;2023-05-10T09:56:36;18.60;99.90
796;DHT22;381;48.770;9.188;2023-05-10T10:01:39;18.80;99.90
796;DHT22;381;48.770;9.188;2023-05-10T10:06:42;19.10;99.90
796;DHT22;381;48.770;9.188;2023-05-10T10:11:46;19.30;99.90
796;DHT22;381;48.770;9.188;2023-05-10T10:16:49;19.40;99.90
796;DHT22;381;48.770;9.188;2023-05-10T10:21:51;19.20;99.90
796;DHT22;381;48.770;9.188;2023-05-10T10:26:59;19.00;99.90
796;DHT22;381;48.770;9.188;2023-05-10T10:32:12;18.90;99.90
796;DHT22;381;48.770;9.188;2023-05-10T10:37:19;19.00;99.90
796;DHT22;381;48.770;9.188;2023-05-10T10:42:46;19.20;99.90
796;DHT22;381;48.770;9.188;2023-05-10T10:53:11;19.20;99.90
796;DHT22;381;48.770;9.188;2023-05-10T10:58:29;19.10;99.90
796;DHT22;381;48.770;9.188;2023-05-10T11:03:32;18.90;99.90
796;DHT22;381;48.770;9.188;2023-05-10T11:08:41;18.60;99.90
796;DHT22;381;48.770;9.188;2023-05-10T11:13:46;18.30;99.90
796;DHT22;381;48.770;9.188;2023-05-10T11:18:57;18.00;99.90
796;DHT22;381;48.770;9.188;2023-05-10T11:24:01;17.90;99.90
796;DHT22;381;48.770;9.188;2023-05-10T11:29:08;17.80;99.90
796;DHT22;381;48.770;9.188;2023-05-10T11:34:10;17.80;99.90
796;DHT22;381;48.770;9.188;2023-05-10T11:39:26;17.70;99.90
796;DHT22;381;48.770;9.188;2023-05-10T11:44:31;17.90;99.90
796;DHT22;381;48.770;9.188;2023-05-10T11:49:33;18.10;99.90
796;DHT22;381;48.770;9.188;2023-05-10T11:54:36;18.30;99.90
796;DHT22;381;48.770;9.188;2023-05-10T11:59:39;18.40;99.90
796;DHT22;381;48.770;9.188;2023-05-10T12:04:42;18.30;99.90
796;DHT22;381;48.770;9.188;2023-05-10T12:09:44;18.20;99.90
796;DHT22;381;48.770;9.188;2023-05-10T12:14:50;18.10;99.90
796;DHT22;381;48.770;9.188;2023-05-10T12:19:52;18.10;99.90
796;DHT22;381;48.770;9.188;2023-05-10T12:24:54;18.10;99.90
796;DHT22;381;48.770;9.188;2023-05-10T12:30:00;18.20;99.90
796;DHT22;381;48.770;9.188;2023-05-10T12:35:03;18.40;99.90
796;DHT22;381;48.770;9.188;2023-05-10T12:40:07;18.50;99.90
796;DHT22;381;48.770;9.188;2023-05-10T12:45:11;18.60;99.90
796;DHT22;381;48.770;9.188;2023-05-10T12:50:14;18.70;99.90
796;DHT22;381;48.770;9.188;2023-05-10T12:55:16;18.70;99.90
796;DHT22;381;48.770;9.188;2023-05-10T13:00:19;18.70;99.90
796;DHT22;381;48.770;9.188;2023-05-10T13:05:21;18.70;99.90
796;DHT22;381;48.770;9.188;2023-05-10T13:10:24;18.50;99.90
796;DHT22;381;48.770;9.188;2023-05-10T13:15:27;18.30;99.90
796;DHT22;381;48.770;9.188;2023-05-10T13:20:29;18.20;99.90
796;DHT22;381;48.770;9.188;2023-05-10T13:25:31;18.00;99.90
796;DHT22;381;48.770;9.188;2023-05-10T13:30:36;18.00;99.90
796;DHT22;381;48.770;9.188;2023-05-10T13:35:38;18.10;99.90
796;DHT22;381;48.770;9.188;2023-05-10T13:40:40;18.30;99.90
796;DHT22;381;48.770;9.188;2023-05-10T13:45:44;18.50;99.90
796;DHT22;381;48.770;9.188;2023-05-10T13:50:46;18.60;99.90
796;DHT22;381;48.770;9.188;2023-05-10T13:55:48;18.70;99.90
796;DHT22;381;48.770;9.188;2023-05-10T14:00:52;18.60;99.90
796;DHT22;381;48.770;9.188;2023-05-10T14:05:54;18.50;99.90
796;DHT22;381;48.770;9.188;2023-05-10T14:10:56;18.50;99.90
796;DHT22;381;48.770;9.188;2023-05-10T14:15:59;18.50;99.90
796;DHT22;381;48.770;9.188;2023-05-10T14:21:02;18.60;99.90
796;DHT22;381;48.770;9.188;2023-05-10T14:26:05;18.70;99.90
796;DHT22;381;48.770;9.188;2023-05-10T14:31:08;18.70;99.90
796;DHT22;381;48.770;9.188;2023-05-10T14:36:10;18.70;99.90
796;DHT22;381;48.770;9.188;2023-05-10T14:41:14;18.80;99.90
796;DHT22;381;48.770;9.188;2023-05-10T14:46:19;18.80;99.90
796;DHT22;381;48.770;9.188;2023-05-10T14:51:21;18.90;99.90
796;DHT22;381;48.770;9.188;2023-05-10T14:56:23;18.90;99.90
796;DHT22;381;48.770;9.188;2023-05-10T15:01:27;18.90;99.90
796;DHT22;381;48.770;9.188;2023-05-10T15:06:33;18.80;99.90
796;DHT22;381;48.770;9.188;2023-05-10T15:11:35;18.80;99.90
796;DHT22;381;48.770;9.188;2023-05-10T15:16:39;18.80;99.90
796;DHT22;381;48.770;9.188;2023-05-10T15:21:41;18.80;99.90
796;DHT22;381;48.770;9.188;2023-05-10T15:26:45;18.70;99.90
796;DHT22;381;48.770;9.188;2023-05-10T15:31:49;18.70;99.90
796;DHT22;381;48.770;9.188;2023-05-10T15:36:51;18.70;99.90
796;DHT22;381;48.770;9.188;2023-05-10T15:41:53;18.60;99.90
796;DHT22;381;48.770;9.188;2023-05-10T15:46:57;18.50;99.90
796;DHT22;381;48.770;9.188;2023-05-10T15:51:59;18.50;99.90
796;DHT22;381;48.770;9.188;2023-05-10T15:57:01;18.50;99.90
796;DHT22;381;48.770;9.188;2023-05-10T16:02:05;18.50;99.90
796;DHT22;381;48.770;9.188;2023-05-10T16:07:07;18.50;99.90
796;DHT22;381;48.770;9.188;2023-05-10T16:12:09;18.50;99.90
796;DHT22;381;48.770;9.188;2023-05-10T16:17:13;18.40;99.90
796;DHT22;381;48.770;9.188;2023-05-10T16:22:15;18.40;99.90
796;DHT22;381;48.770;9.188;2023-05-10T16:27:17;18.30;99.90
796;DHT22;381;48.770;9.188;2023-05-10T16:32:21;18.30;99.90
796;DHT22;381;48.770;9.188;2023-05-10T16:37:23;18.20;99.90
796;DHT22;381;48.770;9.188;2023-05-10T16:42:26;18.20;99.90
796;DHT22;381;48.770;9.188;2023-05-10T16:47:33;18.10;99.90
796;DHT22;381;48.770;9.188;2023-05-10T16:52:55;18.10;99.90
796;DHT22;381;48.770;9.188;2023-05-10T16:57:57;18.10;99.90
796;DHT22;381;48.770;9.188;2023-05-10T17:03:00;18.00;99.90
796;DHT22;381;48.770;9.188;2023-05-10T17:08:04;17.90;99.90
796;DHT22;381;48.770;9.188;2023-05-10T17:13:06;17.80;99.90
796;DHT22;381;48.770;9.188;2023-05-10T17:18:08;17.80;99.90
796;DHT22;381;48.770;9.188;2023-05-10T17:23:12;17.70;99.90
796;DHT22;381;48.770;9.188;2023-05-10T17:28:14;17.60;99.90
796;DHT22;381;48.770;9.188;2023-05-10T17:33:16;17.50;99.90
796;DHT22;381;48.770;9.188;2023-05-10T17:38:19;17.40;99.90
796;DHT22;381;48.770;9.188;2023-05-10T17:43:21;17.30;99.90
796;DHT22;381;48.770;9.188;2023-05-10T17:48:25;17.20;99.90
796;DHT22;381;48.770;9.188;2023-05-10T17:53:29;17.10;99.90
796;DHT22;381;48.770;9.188;2023-05-10T17:58:31;17.10;99.90
796;DHT22;381;48.770;9.188;2023-05-10T18:03:33;17.00;99.90
796;DHT22;381;48.770;9.188;2023-05-10T18:08:37;16.80;99.90
796;DHT22;381;48.770;9.188;2023-05-10T18:13:39;16.70;99.90
796;DHT22;381;48.770;9.188;2023-05-10T18:18:41;16.60;99.90
796;DHT22;381;48.770;9.188;2023-05-10T18:23:45;16.50;99.90
796;DHT22;381;48.770;9.188;2023-05-10T18:28:47;16.40;99.90
796;DHT22;381;48.770;9.188;2023-05-10T18:33:49;16.20;99.90
796;DHT22;381;48.770;9.188;2023-05-10T18:38:53;16.10;99.90
796;DHT22;381;48.770;9.188;2023-05-10T18:43:55;16.00;99.90
796;DHT22;381;48.770;9.188;2023-05-10T18:48:57;16.00;99.90
796;DHT22;381;48.770;9.188;2023-05-10T18:54:00;15.90;99.90
796;DHT22;381;48.770;9.188;2023-05-10T18:59:02;15.90;99.90
796;DHT22;381;48.770;9.188;2023-05-10T19:04:04;15.90;99.90
796;DHT22;381;48.770;9.188;2023-05-10T19:09:09;15.80;99.90
796;DHT22;381;48.770;9.188;2023-05-10T19:14:11;15.80;99.90
796;DHT22;381;48.770;9.188;2023-05-10T19:19:13;15.80;99.90
796;DHT22;381;48.770;9.188;2023-05-10T19:24:17;15.80;99.90
796;DHT22;381;48.770;9.188;2023-05-10T19:29:23;15.70;99.90
796;DHT22;381;48.770;9.188;2023-05-10T19:34:25;15.60;99.90
796;DHT22;381;48.770;9.188;2023-05-10T19:39:28;15.50;99.90
796;DHT22;381;48.770;9.188;2023-05-10T19:44:32;15.40;99.90
796;DHT22;381;48.770;9.188;2023-05-10T19:49:34;15.30;99.90
796;DHT22;381;48.770;9.188;2023-05-10T19:54:38;15.30;99.90
796;DHT22;381;48.770;9.188;2023-05-10T19:59:40;15.40;99.90
796;DHT22;381;48.770;9.188;2023-05-10T20:04:42;15.40;99.90
796;DHT22;381;48.770;9.188;2023-05-10T20:09:46;15.40;99.90
796;DHT22;381;48.770;9.188;2023-05-10T20:14:48;15.30;99.90
796;DHT22;381;48.770;9.188;2023-05-10T20:19:50;15.40;99.90
796;DHT22;381;48.770;9.188;2023-05-10T20:24:53;15.40;99.90
796;DHT22;381;48.770;9.188;2023-05-10T20:29:57;15.50;99.90
796;DHT22;381;48.770;9.188;2023-05-10T20:34:59;15.50;99.90
796;DHT22;381;48.770;9.188;2023-05-10T20:40:03;15.50;99.90
796;DHT22;381;48.770;9.188;2023-05-10T20:45:06;15.50;99.90
796;DHT22;381;48.770;9.188;2023-05-10T20:50:08;15.50;99.90
796;DHT22;381;48.770;9.188;2023-05-10T20:55:12;15.50;99.90
796;DHT22;381;48.770;9.188;2023-05-10T21:00:15;15.50;99.90
796;DHT22;381;48.770;9.188;2023-05-10T21:05:17;15.50;99.90
796;DHT22;381;48.770;9.188;2023-05-10T21:10:20;15.50;99.90
796;DHT22;381;48.770;9.188;2023-05-10T21:15:22;15.60;99.90
796;DHT22;381;48.770;9.188;2023-05-10T21:20:25;15.60;99.90
796;DHT22;381;48.770;9.188;2023-05-10T21:25:28;15.60;99.90
796;DHT22;381;48.770;9.188;2023-05-10T21:30:31;15.60;99.90
796;DHT22;381;48.770;9.188;2023-05-10T21:35:33;15.60;99.90
796;DHT22;381;48.770;9.188;2023-05-10T21:40:37;15.60;99.90
796;DHT22;381;48.770;9.188;2023-05-10T21:45:39;15.60;99.90
796;DHT22;381;48.770;9.188;2023-05-10T21:50:41;15.50;99.90
796;DHT22;381;48.770;9.188;2023-05-10T21:55:45;15.50;99.90
796;DHT22;381;48.770;9.188;2023-05-10T22:00:47;15.50;99.90
796;DHT22;381;48.770;9.188;2023-05-10T22:05:49;15.50;99.90
796;DHT22;381;48.770;9.188;2023-05-10T22:10:52;15.50;99.90
796;DHT22;381;48.770;9.188;2023-05-10T22:15:55;15.50;99.90
796;DHT22;381;48.770;9.188;2023-05-10T22:20:59;15.50;99.90
796;DHT22;381;48.770;9.188;2023-05-10T22:26:03;15.40;99.90
796;DHT22;381;48.770;9.188;2023-05-10T22:31:08;15.40;99.90
796;DHT22;381;48.770;9.188;2023-05-10T22:36:10;15.40;99.90
796;DHT22;381;48.770;9.188;2023-05-10T22:41:16;15.40;99.90
796;DHT22;381;48.770;9.188;2023-05-10T22:46:18;15.40;99.90
796;DHT22;381;48.770;9.188;2023-05-10T22:51:20;15.30;99.90
796;DHT22;381;48.770;9.188;2023-05-10T22:56:24;15.30;99.90
796;DHT22;381;48.770;9.188;2023-05-10T23:01:27;15.30;99.90
796;DHT22;381;48.770;9.188;2023-05-10T23:06:29;15.30;99.90
796;DHT22;381;48.770;9.188;2023-05-10T23:11:32;15.30;99.90
796;DHT22;381;48.770;9.188;2023-05-10T23:16:36;15.30;99.90
796;DHT22;381;48.770;9.188;2023-05-10T23:21:38;15.20;99.90
796;DHT22;381;48.770;9.188;2023-05-10T23:26:42;15.20;99.90
796;DHT22;381;48.770;9.188;2023-05-10T23:31:47;15.20;99.90
796;DHT22;381;48.770;9.188;2023-05-10T23:36:50;15.20;99.90
796;DHT22;381;48.770;9.188;2023-05-10T23:41:54;15.10;99.90
796;DHT22;381;48.770;9.188;2023-05-10T23:46:56;15.10;99.90
796;DHT22;381;48.770;9.188;2023-05-10T23:51:58;15.10;99.90
796;DHT22;381;48.770;9.188;2023-05-10T23:57:01;15.10;99.90
